sensor_id;sensor_type;location;lat;lon;timestamp;P1;durP1;ratioP1;P2;durP2;ratioP2
5391;SDS011;2719;53.624;9.786;2024-02-26T00:00:14;4.33;;;1.13;;
5391;SDS011;2719;53.624;9.786;2024-02-26T00:02:42;4.10;;;1.60;;
5391;SDS011;2719;53.624;9.786;2024-02-26T00:05:08;4.17;;;1.63;;
5391;SDS011;2719;53.624;9.786;2024-02-26T00:07:35;6.13;;;2.10;;
5391;SDS011;2719;53.624;9.786;2024-02-26T00:10:03;3.63;;;1.20;;
5391;SDS011;2719;53.624;9.786;2024-02-26T00:12:30;3.57;;;1.27;;
5391;SDS011;2719;53.624;9.786;2024-02-26T00:14:56;3.50;;;1.60;;
5391;SDS011;2719;53.624;9.786;2024-02-26T00:17:23;3.57;;;1.60;;
5391;SDS011;2719;53.624;9.786;2024-02-26T00:19:51;3.20;;;1.30;;
5391;SDS011;2719;53.624;9.786;2024-02-26T00:22:20;7.53;;;2.10;;
5391;SDS011;2719;53.624;9.786;2024-02-26T00:24:47;3.13;;;1.20;;
5391;SDS011;2719;53.624;9.786;2024-02-26T00:27:13;3.07;;;1.10;;
5391;SDS011;2719;53.624;9.786;2024-02-26T00:29:40;2.73;;;1.43;;
5391;SDS011;2719;53.624;9.786;2024-02-26T00:32:07;4.20;;;1.37;;
5391;SDS011;2719;53.624;9.786;2024-02-26T00:34:33;3.30;;;1.47;;
5391;SDS011;2719;53.624;9.786;2024-02-26T00:37:01;4.10;;;1.40;;
5391;SDS011;2719;53.624;9.786;2024-02-26T00:39:28;3.30;;;1.17;;
5391;SDS011;2719;53.624;9.786;2024-02-26T00:41:54;3.00;;;1.30;;
5391;SDS011;2719;53.624;9.786;2024-02-26T00:44:22;3.40;;;1.30;;
5391;SDS011;2719;53.624;9.786;2024-02-26T00:46:48;3.23;;;1.40;;
5391;SDS011;2719;53.624;9.786;2024-02-26T00:49:15;3.53;;;1.50;;
5391;SDS011;2719;53.624;9.786;2024-02-26T00:51:42;3.37;;;1.37;;
5391;SDS011;2719;53.624;9.786;2024-02-26T00:54:10;4.73;;;1.70;;
5391;SDS011;2719;53.624;9.786;2024-02-26T00:56:36;5.27;;;2.00;;
5391;SDS011;2719;53.624;9.786;2024-02-26T00:59:03;3.43;;;1.60;;
5391;SDS011;2719;53.624;9.786;2024-02-26T01:01:30;3.53;;;1.80;;
5391;SDS011;2719;53.624;9.786;2024-02-26T01:03:56;5.10;;;1.50;;
5391;SDS011;2719;53.624;9.786;2024-02-26T01:06:23;3.17;;;1.47;;
5391;SDS011;2719;53.624;9.786;2024-02-26T01:08:49;5.33;;;1.33;;
5391;SDS011;2719;53.624;9.786;2024-02-26T01:11:17;4.20;;;1.80;;
5391;SDS011;2719;53.624;9.786;2024-02-26T01:13:44;6.23;;;2.00;;
5391;SDS011;2719;53.624;9.786;2024-02-26T01:16:10;4.37;;;2.30;;
5391;SDS011;2719;53.624;9.786;2024-02-26T01:18:37;5.80;;;2.57;;
5391;SDS011;2719;53.624;9.786;2024-02-26T01:21:04;4.50;;;1.80;;
5391;SDS011;2719;53.624;9.786;2024-02-26T01:23:33;5.10;;;2.07;;
5391;SDS011;2719;53.624;9.786;2024-02-26T01:26:00;4.97;;;2.07;;
5391;SDS011;2719;53.624;9.786;2024-02-26T01:28:29;6.83;;;1.63;;
5391;SDS011;2719;53.624;9.786;2024-02-26T01:30:55;3.30;;;1.77;;
5391;SDS011;2719;53.624;9.786;2024-02-26T01:33:24;4.37;;;1.60;;
5391;SDS011;2719;53.624;9.786;2024-02-26T01:35:51;2.97;;;1.37;;
5391;SDS011;2719;53.624;9.786;2024-02-26T01:38:18;3.50;;;1.97;;
5391;SDS011;2719;53.624;9.786;2024-02-26T01:40:45;3.10;;;1.90;;
5391;SDS011;2719;53.624;9.786;2024-02-26T01:43:11;6.70;;;2.17;;
5391;SDS011;2719;53.624;9.786;2024-02-26T01:45:39;3.87;;;1.60;;
5391;SDS011;2719;53.624;9.786;2024-02-26T01:48:06;4.17;;;2.00;;
5391;SDS011;2719;53.624;9.786;2024-02-26T01:50:33;4.53;;;2.50;;
5391;SDS011;2719;53.624;9.786;2024-02-26T01:53:02;3.43;;;1.43;;
5391;SDS011;2719;53.624;9.786;2024-02-26T01:55:30;3.13;;;1.57;;
5391;SDS011;2719;53.624;9.786;2024-02-26T01:57:56;4.03;;;2.03;;
5391;SDS011;2719;53.624;9.786;2024-02-26T02:00:24;4.30;;;2.40;;
5391;SDS011;2719;53.624;9.786;2024-02-26T02:02:52;3.90;;;2.30;;
5391;SDS011;2719;53.624;9.786;2024-02-26T02:05:19;4.53;;;2.23;;
5391;SDS011;2719;53.624;9.786;2024-02-26T02:07:47;5.10;;;2.50;;
5391;SDS011;2719;53.624;9.786;2024-02-26T02:10:14;4.30;;;2.30;;
5391;SDS011;2719;53.624;9.786;2024-02-26T02:12:43;5.80;;;2.40;;
5391;SDS011;2719;53.624;9.786;2024-02-26T02:15:09;4.33;;;1.97;;
5391;SDS011;2719;53.624;9.786;2024-02-26T02:17:36;5.03;;;2.33;;
5391;SDS011;2719;53.624;9.786;2024-02-26T02:20:05;5.10;;;2.33;;
5391;SDS011;2719;53.624;9.786;2024-02-26T02:22:35;4.77;;;2.90;;
5391;SDS011;2719;53.624;9.786;2024-02-26T02:25:03;5.40;;;2.17;;
5391;SDS011;2719;53.624;9.786;2024-02-26T02:27:30;4.50;;;2.20;;
5391;SDS011;2719;53.624;9.786;2024-02-26T02:29:57;5.20;;;2.40;;
5391;SDS011;2719;53.624;9.786;2024-02-26T02:32:24;4.47;;;2.07;;
5391;SDS011;2719;53.624;9.786;2024-02-26T02:34:52;4.47;;;2.30;;
5391;SDS011;2719;53.624;9.786;2024-02-26T02:37:19;4.40;;;2.13;;
5391;SDS011;2719;53.624;9.786;2024-02-26T02:39:47;5.10;;;2.57;;
5391;SDS011;2719;53.624;9.786;2024-02-26T02:42:13;6.70;;;2.67;;
5391;SDS011;2719;53.624;9.786;2024-02-26T02:44:41;4.73;;;2.17;;
5391;SDS011;2719;53.624;9.786;2024-02-26T02:47:09;3.87;;;2.03;;
5391;SDS011;2719;53.624;9.786;2024-02-26T02:49:36;6.40;;;3.17;;
5391;SDS011;2719;53.624;9.786;2024-02-26T02:52:03;5.97;;;2.63;;
5391;SDS011;2719;53.624;9.786;2024-02-26T02:54:30;4.50;;;2.83;;
5391;SDS011;2719;53.624;9.786;2024-02-26T02:56:58;6.43;;;3.33;;
5391;SDS011;2719;53.624;9.786;2024-02-26T02:59:25;7.90;;;3.77;;
5391;SDS011;2719;53.624;9.786;2024-02-26T03:01:53;7.00;;;2.83;;
5391;SDS011;2719;53.624;9.786;2024-02-26T03:04:19;6.90;;;3.17;;
5391;SDS011;2719;53.624;9.786;2024-02-26T03:06:46;5.73;;;3.07;;
5391;SDS011;2719;53.624;9.786;2024-02-26T03:09:13;6.67;;;3.60;;
5391;SDS011;2719;53.624;9.786;2024-02-26T03:11:39;6.10;;;2.77;;
5391;SDS011;2719;53.624;9.786;2024-02-26T03:14:07;5.30;;;3.00;;
5391;SDS011;2719;53.624;9.786;2024-02-26T03:16:34;5.97;;;3.10;;
5391;SDS011;2719;53.624;9.786;2024-02-26T03:19:01;6.70;;;3.67;;
5391;SDS011;2719;53.624;9.786;2024-02-26T03:21:28;6.00;;;3.20;;
5391;SDS011;2719;53.624;9.786;2024-02-26T03:23:54;7.60;;;3.07;;
5391;SDS011;2719;53.624;9.786;2024-02-26T03:26:22;6.67;;;3.13;;
5391;SDS011;2719;53.624;9.786;2024-02-26T03:28:49;6.70;;;3.07;;
5391;SDS011;2719;53.624;9.786;2024-02-26T03:31:16;5.10;;;2.47;;
5391;SDS011;2719;53.624;9.786;2024-02-26T03:33:44;6.67;;;3.60;;
5391;SDS011;2719;53.624;9.786;2024-02-26T03:36:10;9.30;;;3.93;;
5391;SDS011;2719;53.624;9.786;2024-02-26T03:38:37;6.50;;;3.50;;
5391;SDS011;2719;53.624;9.786;2024-02-26T03:41:03;6.13;;;2.97;;
5391;SDS011;2719;53.624;9.786;2024-02-26T03:43:30;10.63;;;3.87;;
5391;SDS011;2719;53.624;9.786;2024-02-26T03:45:57;9.23;;;3.20;;
5391;SDS011;2719;53.624;9.786;2024-02-26T03:48:26;7.53;;;4.10;;
5391;SDS011;2719;53.624;9.786;2024-02-26T03:50:53;9.63;;;4.00;;
5391;SDS011;2719;53.624;9.786;2024-02-26T03:53:19;7.07;;;3.30;;
5391;SDS011;2719;53.624;9.786;2024-02-26T03:55:46;5.60;;;2.90;;
5391;SDS011;2719;53.624;9.786;2024-02-26T03:58:12;9.00;;;3.50;;
5391;SDS011;2719;53.624;9.786;2024-02-26T04:00:40;5.40;;;3.00;;
5391;SDS011;2719;53.624;9.786;2024-02-26T04:03:08;14.40;;;3.70;;
5391;SDS011;2719;53.624;9.786;2024-02-26T04:05:36;6.03;;;3.40;;
5391;SDS011;2719;53.624;9.786;2024-02-26T04:08:03;5.23;;;2.83;;
5391;SDS011;2719;53.624;9.786;2024-02-26T04:10:32;5.67;;;3.30;;
5391;SDS011;2719;53.624;9.786;2024-02-26T04:13:00;7.70;;;4.43;;
5391;SDS011;2719;53.624;9.786;2024-02-26T04:15:26;7.60;;;4.10;;
5391;SDS011;2719;53.624;9.786;2024-02-26T04:17:53;8.20;;;3.97;;
5391;SDS011;2719;53.624;9.786;2024-02-26T04:20:20;6.37;;;3.70;;
5391;SDS011;2719;53.624;9.786;2024-02-26T04:22:48;13.27;;;4.27;;
5391;SDS011;2719;53.624;9.786;2024-02-26T04:25:14;6.93;;;4.20;;
5391;SDS011;2719;53.624;9.786;2024-02-26T04:27:41;7.13;;;4.17;;
5391;SDS011;2719;53.624;9.786;2024-02-26T04:30:08;7.00;;;3.50;;
5391;SDS011;2719;53.624;9.786;2024-02-26T04:32:35;6.80;;;5.00;;
5391;SDS011;2719;53.624;9.786;2024-02-26T04:35:02;7.83;;;4.03;;
5391;SDS011;2719;53.624;9.786;2024-02-26T04:37:29;17.00;;;4.70;;
5391;SDS011;2719;53.624;9.786;2024-02-26T04:39:58;8.90;;;4.63;;
5391;SDS011;2719;53.624;9.786;2024-02-26T04:42:25;8.23;;;4.10;;
5391;SDS011;2719;53.624;9.786;2024-02-26T04:44:52;11.83;;;5.87;;
5391;SDS011;2719;53.624;9.786;2024-02-26T04:47:18;12.60;;;5.40;;
5391;SDS011;2719;53.624;9.786;2024-02-26T04:49:47;9.40;;;4.73;;
5391;SDS011;2719;53.624;9.786;2024-02-26T04:52:13;9.23;;;5.20;;
5391;SDS011;2719;53.624;9.786;2024-02-26T04:54:40;14.93;;;6.57;;
5391;SDS011;2719;53.624;9.786;2024-02-26T04:57:08;16.20;;;7.27;;
5391;SDS011;2719;53.624;9.786;2024-02-26T04:59:34;20.73;;;8.97;;
5391;SDS011;2719;53.624;9.786;2024-02-26T05:02:01;15.57;;;7.30;;
5391;SDS011;2719;53.624;9.786;2024-02-26T05:04:29;21.33;;;9.40;;
5391;SDS011;2719;53.624;9.786;2024-02-26T05:06:55;15.63;;;7.57;;
5391;SDS011;2719;53.624;9.786;2024-02-26T05:09:22;16.63;;;8.37;;
5391;SDS011;2719;53.624;9.786;2024-02-26T05:11:48;17.17;;;8.57;;
5391;SDS011;2719;53.624;9.786;2024-02-26T05:14:16;19.87;;;9.17;;
5391;SDS011;2719;53.624;9.786;2024-02-26T05:16:43;18.93;;;9.30;;
5391;SDS011;2719;53.624;9.786;2024-02-26T05:19:10;22.97;;;9.07;;
5391;SDS011;2719;53.624;9.786;2024-02-26T05:21:37;18.40;;;8.80;;
5391;SDS011;2719;53.624;9.786;2024-02-26T05:24:05;16.93;;;8.03;;
5391;SDS011;2719;53.624;9.786;2024-02-26T05:26:32;15.13;;;8.50;;
5391;SDS011;2719;53.624;9.786;2024-02-26T05:28:58;16.33;;;7.37;;
5391;SDS011;2719;53.624;9.786;2024-02-26T05:31:26;16.67;;;7.50;;
5391;SDS011;2719;53.624;9.786;2024-02-26T05:33:53;14.33;;;7.37;;
5391;SDS011;2719;53.624;9.786;2024-02-26T05:36:21;15.03;;;8.27;;
5391;SDS011;2719;53.624;9.786;2024-02-26T05:38:48;14.87;;;7.77;;
5391;SDS011;2719;53.624;9.786;2024-02-26T05:41:15;16.37;;;8.73;;
5391;SDS011;2719;53.624;9.786;2024-02-26T05:43:41;16.80;;;8.10;;
5391;SDS011;2719;53.624;9.786;2024-02-26T05:46:08;21.97;;;9.30;;
5391;SDS011;2719;53.624;9.786;2024-02-26T05:48:36;16.50;;;8.63;;
5391;SDS011;2719;53.624;9.786;2024-02-26T05:51:03;18.40;;;7.50;;
5391;SDS011;2719;53.624;9.786;2024-02-26T05:53:31;14.60;;;7.60;;
5391;SDS011;2719;53.624;9.786;2024-02-26T05:55:57;15.67;;;8.10;;
5391;SDS011;2719;53.624;9.786;2024-02-26T05:58:24;24.10;;;9.33;;
5391;SDS011;2719;53.624;9.786;2024-02-26T06:00:51;15.10;;;8.17;;
5391;SDS011;2719;53.624;9.786;2024-02-26T06:03:17;22.13;;;8.80;;
5391;SDS011;2719;53.624;9.786;2024-02-26T06:05:45;24.47;;;7.93;;
5391;SDS011;2719;53.624;9.786;2024-02-26T06:08:12;17.70;;;8.53;;
5391;SDS011;2719;53.624;9.786;2024-02-26T06:10:39;19.33;;;9.30;;
5391;SDS011;2719;53.624;9.786;2024-02-26T06:13:05;18.23;;;8.03;;
5391;SDS011;2719;53.624;9.786;2024-02-26T06:15:32;16.00;;;8.47;;
5391;SDS011;2719;53.624;9.786;2024-02-26T06:17:59;15.63;;;7.90;;
5391;SDS011;2719;53.624;9.786;2024-02-26T06:20:25;20.70;;;8.90;;
5391;SDS011;2719;53.624;9.786;2024-02-26T06:22:53;23.67;;;8.93;;
5391;SDS011;2719;53.624;9.786;2024-02-26T06:25:20;30.70;;;8.60;;
5391;SDS011;2719;53.624;9.786;2024-02-26T06:27:47;17.47;;;8.53;;
5391;SDS011;2719;53.624;9.786;2024-02-26T06:30:13;27.90;;;8.80;;
5391;SDS011;2719;53.624;9.786;2024-02-26T06:32:40;24.63;;;7.97;;
5391;SDS011;2719;53.624;9.786;2024-02-26T06:35:07;31.20;;;8.10;;
5391;SDS011;2719;53.624;9.786;2024-02-26T06:37:35;19.83;;;9.20;;
5391;SDS011;2719;53.624;9.786;2024-02-26T06:40:04;18.87;;;9.13;;
5391;SDS011;2719;53.624;9.786;2024-02-26T06:42:32;24.70;;;8.37;;
5391;SDS011;2719;53.624;9.786;2024-02-26T06:44:59;20.00;;;8.20;;
5391;SDS011;2719;53.624;9.786;2024-02-26T06:47:25;22.57;;;9.73;;
5391;SDS011;2719;53.624;9.786;2024-02-26T06:49:52;18.80;;;8.90;;
5391;SDS011;2719;53.624;9.786;2024-02-26T06:52:23;27.90;;;8.37;;
5391;SDS011;2719;53.624;9.786;2024-02-26T06:54:50;17.67;;;7.30;;
5391;SDS011;2719;53.624;9.786;2024-02-26T06:57:19;28.37;;;9.70;;
5391;SDS011;2719;53.624;9.786;2024-02-26T06:59:45;17.30;;;8.77;;
5391;SDS011;2719;53.624;9.786;2024-02-26T07:02:12;18.03;;;8.70;;
5391;SDS011;2719;53.624;9.786;2024-02-26T07:04:39;18.10;;;8.60;;
5391;SDS011;2719;53.624;9.786;2024-02-26T07:07:06;20.03;;;7.80;;
5391;SDS011;2719;53.624;9.786;2024-02-26T07:09:33;16.37;;;8.17;;
5391;SDS011;2719;53.624;9.786;2024-02-26T07:12:00;15.83;;;7.73;;
5391;SDS011;2719;53.624;9.786;2024-02-26T07:14:28;19.33;;;9.33;;
5391;SDS011;2719;53.624;9.786;2024-02-26T07:16:55;18.17;;;8.50;;
5391;SDS011;2719;53.624;9.786;2024-02-26T07:19:21;21.03;;;9.17;;
5391;SDS011;2719;53.624;9.786;2024-02-26T07:21:48;21.30;;;10.53;;
5391;SDS011;2719;53.624;9.786;2024-02-26T07:24:14;17.47;;;8.50;;
5391;SDS011;2719;53.624;9.786;2024-02-26T07:26:41;23.83;;;8.73;;
5391;SDS011;2719;53.624;9.786;2024-02-26T07:29:08;18.33;;;8.70;;
5391;SDS011;2719;53.624;9.786;2024-02-26T07:31:36;17.70;;;8.57;;
5391;SDS011;2719;53.624;9.786;2024-02-26T07:34:02;22.63;;;10.20;;
5391;SDS011;2719;53.624;9.786;2024-02-26T07:36:29;21.57;;;9.80;;
5391;SDS011;2719;53.624;9.786;2024-02-26T07:38:56;22.50;;;9.83;;
5391;SDS011;2719;53.624;9.786;2024-02-26T07:41:22;26.53;;;10.07;;
5391;SDS011;2719;53.624;9.786;2024-02-26T07:43:49;22.50;;;9.30;;
5391;SDS011;2719;53.624;9.786;2024-02-26T07:46:15;22.60;;;8.87;;
5391;SDS011;2719;53.624;9.786;2024-02-26T07:48:43;16.10;;;8.40;;
5391;SDS011;2719;53.624;9.786;2024-02-26T07:51:11;44.37;;;8.70;;
5391;SDS011;2719;53.624;9.786;2024-02-26T07:53:38;18.73;;;9.17;;
5391;SDS011;2719;53.624;9.786;2024-02-26T07:56:05;25.33;;;9.63;;
5391;SDS011;2719;53.624;9.786;2024-02-26T07:58:32;18.27;;;9.30;;
5391;SDS011;2719;53.624;9.786;2024-02-26T08:00:59;23.40;;;10.13;;
5391;SDS011;2719;53.624;9.786;2024-02-26T08:03:26;22.07;;;9.00;;
5391;SDS011;2719;53.624;9.786;2024-02-26T08:05:54;25.67;;;9.47;;
5391;SDS011;2719;53.624;9.786;2024-02-26T08:08:21;19.23;;;9.40;;
5391;SDS011;2719;53.624;9.786;2024-02-26T08:10:47;43.23;;;10.77;;
5391;SDS011;2719;53.624;9.786;2024-02-26T08:13:14;23.13;;;9.60;;
5391;SDS011;2719;53.624;9.786;2024-02-26T08:15:41;27.13;;;9.00;;
5391;SDS011;2719;53.624;9.786;2024-02-26T08:18:07;30.73;;;9.40;;
5391;SDS011;2719;53.624;9.786;2024-02-26T08:20:34;21.87;;;10.60;;
5391;SDS011;2719;53.624;9.786;2024-02-26T08:23:02;22.80;;;10.37;;
5391;SDS011;2719;53.624;9.786;2024-02-26T08:25:29;26.90;;;9.93;;
5391;SDS011;2719;53.624;9.786;2024-02-26T08:27:56;23.27;;;9.90;;
5391;SDS011;2719;53.624;9.786;2024-02-26T08:30:22;22.50;;;10.50;;
5391;SDS011;2719;53.624;9.786;2024-02-26T08:32:49;23.47;;;10.07;;
5391;SDS011;2719;53.624;9.786;2024-02-26T08:35:16;21.93;;;9.60;;
5391;SDS011;2719;53.624;9.786;2024-02-26T08:37:43;19.17;;;10.33;;
5391;SDS011;2719;53.624;9.786;2024-02-26T08:40:12;19.87;;;10.03;;
5391;SDS011;2719;53.624;9.786;2024-02-26T08:42:39;32.77;;;9.53;;
5391;SDS011;2719;53.624;9.786;2024-02-26T08:45:06;20.77;;;9.00;;
5391;SDS011;2719;53.624;9.786;2024-02-26T08:47:34;26.60;;;10.90;;
5391;SDS011;2719;53.624;9.786;2024-02-26T08:50:00;19.47;;;10.27;;
5391;SDS011;2719;53.624;9.786;2024-02-26T08:52:27;17.97;;;9.13;;
5391;SDS011;2719;53.624;9.786;2024-02-26T08:54:53;17.87;;;8.90;;
5391;SDS011;2719;53.624;9.786;2024-02-26T08:57:21;20.40;;;9.43;;
5391;SDS011;2719;53.624;9.786;2024-02-26T08:59:48;22.53;;;10.17;;
5391;SDS011;2719;53.624;9.786;2024-02-26T09:02:15;25.07;;;10.73;;
5391;SDS011;2719;53.624;9.786;2024-02-26T09:04:42;23.97;;;9.13;;
5391;SDS011;2719;53.624;9.786;2024-02-26T09:07:09;19.13;;;9.93;;
5391;SDS011;2719;53.624;9.786;2024-02-26T09:09:36;22.93;;;9.77;;
5391;SDS011;2719;53.624;9.786;2024-02-26T09:12:02;26.60;;;10.73;;
5391;SDS011;2719;53.624;9.786;2024-02-26T09:14:31;21.30;;;10.40;;
5391;SDS011;2719;53.624;9.786;2024-02-26T09:16:57;23.80;;;11.07;;
5391;SDS011;2719;53.624;9.786;2024-02-26T09:19:24;21.70;;;11.13;;
5391;SDS011;2719;53.624;9.786;2024-02-26T09:21:52;23.27;;;10.57;;
5391;SDS011;2719;53.624;9.786;2024-02-26T09:24:22;21.93;;;11.67;;
5391;SDS011;2719;53.624;9.786;2024-02-26T09:26:48;18.17;;;10.00;;
5391;SDS011;2719;53.624;9.786;2024-02-26T09:29:15;22.13;;;11.20;;
5391;SDS011;2719;53.624;9.786;2024-02-26T09:31:43;21.63;;;8.70;;
5391;SDS011;2719;53.624;9.786;2024-02-26T09:34:12;21.00;;;10.30;;
5391;SDS011;2719;53.624;9.786;2024-02-26T09:36:39;24.07;;;11.67;;
5391;SDS011;2719;53.624;9.786;2024-02-26T09:39:05;20.20;;;9.70;;
5391;SDS011;2719;53.624;9.786;2024-02-26T09:41:36;23.03;;;10.30;;
5391;SDS011;2719;53.624;9.786;2024-02-26T09:44:04;21.83;;;11.10;;
5391;SDS011;2719;53.624;9.786;2024-02-26T09:46:31;23.07;;;11.33;;
5391;SDS011;2719;53.624;9.786;2024-02-26T09:48:59;20.23;;;10.60;;
5391;SDS011;2719;53.624;9.786;2024-02-26T09:51:26;23.00;;;10.40;;
5391;SDS011;2719;53.624;9.786;2024-02-26T09:53:53;25.30;;;10.80;;
5391;SDS011;2719;53.624;9.786;2024-02-26T09:56:22;22.20;;;12.00;;
5391;SDS011;2719;53.624;9.786;2024-02-26T09:58:49;22.07;;;11.97;;
5391;SDS011;2719;53.624;9.786;2024-02-26T10:01:19;21.80;;;11.20;;
5391;SDS011;2719;53.624;9.786;2024-02-26T10:03:47;19.93;;;10.43;;
5391;SDS011;2719;53.624;9.786;2024-02-26T10:06:22;21.97;;;10.67;;
5391;SDS011;2719;53.624;9.786;2024-02-26T10:08:49;23.53;;;11.43;;
5391;SDS011;2719;53.624;9.786;2024-02-26T10:11:16;21.57;;;10.47;;
5391;SDS011;2719;53.624;9.786;2024-02-26T10:13:43;23.47;;;11.00;;
5391;SDS011;2719;53.624;9.786;2024-02-26T10:16:10;21.70;;;10.80;;
5391;SDS011;2719;53.624;9.786;2024-02-26T10:18:46;25.17;;;12.20;;
5391;SDS011;2719;53.624;9.786;2024-02-26T10:21:14;20.57;;;11.03;;
5391;SDS011;2719;53.624;9.786;2024-02-26T10:23:44;23.17;;;12.53;;
5391;SDS011;2719;53.624;9.786;2024-02-26T10:26:11;22.70;;;11.47;;
5391;SDS011;2719;53.624;9.786;2024-02-26T10:28:39;22.80;;;11.00;;
5391;SDS011;2719;53.624;9.786;2024-02-26T10:31:06;21.23;;;10.30;;
5391;SDS011;2719;53.624;9.786;2024-02-26T10:33:33;21.33;;;11.90;;
5391;SDS011;2719;53.624;9.786;2024-02-26T10:36:00;19.67;;;10.60;;
5391;SDS011;2719;53.624;9.786;2024-02-26T10:38:27;22.07;;;11.50;;
5391;SDS011;2719;53.624;9.786;2024-02-26T10:40:55;24.10;;;11.97;;
5391;SDS011;2719;53.624;9.786;2024-02-26T10:43:22;21.10;;;10.97;;
5391;SDS011;2719;53.624;9.786;2024-02-26T10:45:48;21.87;;;10.63;;
5391;SDS011;2719;53.624;9.786;2024-02-26T10:48:15;21.13;;;10.87;;
5391;SDS011;2719;53.624;9.786;2024-02-26T10:50:42;23.43;;;11.47;;
5391;SDS011;2719;53.624;9.786;2024-02-26T10:53:11;21.60;;;11.93;;
5391;SDS011;2719;53.624;9.786;2024-02-26T10:55:41;27.43;;;11.33;;
5391;SDS011;2719;53.624;9.786;2024-02-26T10:58:13;19.33;;;10.47;;
5391;SDS011;2719;53.624;9.786;2024-02-26T11:00:40;18.53;;;10.73;;
5391;SDS011;2719;53.624;9.786;2024-02-26T11:03:07;17.80;;;10.50;;
5391;SDS011;2719;53.624;9.786;2024-02-26T11:05:36;19.23;;;11.13;;
5391;SDS011;2719;53.624;9.786;2024-02-26T11:08:05;16.87;;;5.83;;
5391;SDS011;2719;53.624;9.786;2024-02-26T11:10:33;11.97;;;4.83;;
5391;SDS011;2719;53.624;9.786;2024-02-26T11:13:02;23.23;;;11.97;;
5391;SDS011;2719;53.624;9.786;2024-02-26T11:15:32;20.37;;;11.43;;
5391;SDS011;2719;53.624;9.786;2024-02-26T11:17:59;15.67;;;9.47;;
5391;SDS011;2719;53.624;9.786;2024-02-26T11:20:27;15.90;;;9.47;;
5391;SDS011;2719;53.624;9.786;2024-02-26T11:22:55;19.43;;;10.07;;
5391;SDS011;2719;53.624;9.786;2024-02-26T11:25:22;29.23;;;9.30;;
5391;SDS011;2719;53.624;9.786;2024-02-26T11:27:49;23.50;;;9.07;;
5391;SDS011;2719;53.624;9.786;2024-02-26T11:30:22;18.10;;;9.03;;
5391;SDS011;2719;53.624;9.786;2024-02-26T11:32:51;16.40;;;8.73;;
5391;SDS011;2719;53.624;9.786;2024-02-26T11:35:19;17.13;;;7.30;;
5391;SDS011;2719;53.624;9.786;2024-02-26T11:37:55;17.43;;;5.93;;
5391;SDS011;2719;53.624;9.786;2024-02-26T11:40:23;12.13;;;6.47;;
5391;SDS011;2719;53.624;9.786;2024-02-26T11:42:51;15.30;;;7.00;;
5391;SDS011;2719;53.624;9.786;2024-02-26T11:48:16;14.27;;;8.03;;
5391;SDS011;2719;53.624;9.786;2024-02-26T11:50:46;9.83;;;6.30;;
5391;SDS011;2719;53.624;9.786;2024-02-26T11:53:20;14.10;;;7.27;;
5391;SDS011;2719;53.624;9.786;2024-02-26T11:55:48;14.73;;;6.30;;
5391;SDS011;2719;53.624;9.786;2024-02-26T11:58:38;15.10;;;8.50;;
5391;SDS011;2719;53.624;9.786;2024-02-26T12:01:05;20.10;;;7.60;;
5391;SDS011;2719;53.624;9.786;2024-02-26T12:03:33;16.50;;;8.73;;
5391;SDS011;2719;53.624;9.786;2024-02-26T12:06:00;13.17;;;8.17;;
5391;SDS011;2719;53.624;9.786;2024-02-26T12:08:27;18.50;;;8.10;;
5391;SDS011;2719;53.624;9.786;2024-02-26T12:10:55;13.20;;;7.77;;
5391;SDS011;2719;53.624;9.786;2024-02-26T12:13:25;15.70;;;8.50;;
5391;SDS011;2719;53.624;9.786;2024-02-26T12:15:57;14.77;;;8.73;;
5391;SDS011;2719;53.624;9.786;2024-02-26T12:18:24;15.40;;;8.90;;
5391;SDS011;2719;53.624;9.786;2024-02-26T12:20:59;16.73;;;8.87;;
5391;SDS011;2719;53.624;9.786;2024-02-26T12:23:26;14.93;;;9.10;;
5391;SDS011;2719;53.624;9.786;2024-02-26T12:25:53;15.43;;;8.20;;
5391;SDS011;2719;53.624;9.786;2024-02-26T12:28:27;14.93;;;8.33;;
5391;SDS011;2719;53.624;9.786;2024-02-26T12:30:53;18.37;;;9.00;;
5391;SDS011;2719;53.624;9.786;2024-02-26T12:33:20;15.90;;;8.00;;
5391;SDS011;2719;53.624;9.786;2024-02-26T12:35:47;13.10;;;7.43;;
5391;SDS011;2719;53.624;9.786;2024-02-26T12:38:16;14.17;;;7.77;;
5391;SDS011;2719;53.624;9.786;2024-02-26T12:40:42;15.57;;;8.20;;
5391;SDS011;2719;53.624;9.786;2024-02-26T12:43:09;14.67;;;8.03;;
5391;SDS011;2719;53.624;9.786;2024-02-26T12:45:38;13.07;;;7.37;;
5391;SDS011;2719;53.624;9.786;2024-02-26T12:48:06;18.73;;;5.80;;
5391;SDS011;2719;53.624;9.786;2024-02-26T12:50:33;13.23;;;7.37;;
5391;SDS011;2719;53.624;9.786;2024-02-26T12:53:00;12.70;;;7.03;;
5391;SDS011;2719;53.624;9.786;2024-02-26T12:55:28;12.47;;;6.43;;
5391;SDS011;2719;53.624;9.786;2024-02-26T12:57:56;11.93;;;6.70;;
5391;SDS011;2719;53.624;9.786;2024-02-26T13:00:25;10.80;;;6.97;;
5391;SDS011;2719;53.624;9.786;2024-02-26T13:02:53;12.77;;;7.77;;
5391;SDS011;2719;53.624;9.786;2024-02-26T13:05:21;13.80;;;7.33;;
5391;SDS011;2719;53.624;9.786;2024-02-26T13:07:49;11.50;;;6.77;;
5391;SDS011;2719;53.624;9.786;2024-02-26T13:10:18;12.27;;;7.30;;
5391;SDS011;2719;53.624;9.786;2024-02-26T13:12:47;14.40;;;8.50;;
5391;SDS011;2719;53.624;9.786;2024-02-26T13:15:15;16.10;;;9.20;;
5391;SDS011;2719;53.624;9.786;2024-02-26T13:17:43;13.33;;;7.67;;
5391;SDS011;2719;53.624;9.786;2024-02-26T13:20:09;10.93;;;7.00;;
5391;SDS011;2719;53.624;9.786;2024-02-26T13:22:36;13.90;;;7.27;;
5391;SDS011;2719;53.624;9.786;2024-02-26T13:25:04;11.40;;;6.20;;
5391;SDS011;2719;53.624;9.786;2024-02-26T13:27:32;14.30;;;7.50;;
5391;SDS011;2719;53.624;9.786;2024-02-26T13:30:04;14.57;;;8.27;;
5391;SDS011;2719;53.624;9.786;2024-02-26T13:32:35;13.60;;;7.33;;
5391;SDS011;2719;53.624;9.786;2024-02-26T13:35:06;11.80;;;6.20;;
5391;SDS011;2719;53.624;9.786;2024-02-26T13:37:34;14.70;;;8.50;;
5391;SDS011;2719;53.624;9.786;2024-02-26T13:40:00;12.93;;;7.30;;
5391;SDS011;2719;53.624;9.786;2024-02-26T13:42:30;13.43;;;7.97;;
5391;SDS011;2719;53.624;9.786;2024-02-26T13:44:57;10.20;;;6.10;;
5391;SDS011;2719;53.624;9.786;2024-02-26T13:47:25;12.50;;;7.20;;
5391;SDS011;2719;53.624;9.786;2024-02-26T13:49:52;15.33;;;8.67;;
5391;SDS011;2719;53.624;9.786;2024-02-26T13:52:18;20.20;;;7.90;;
5391;SDS011;2719;53.624;9.786;2024-02-26T13:54:46;16.63;;;8.70;;
5391;SDS011;2719;53.624;9.786;2024-02-26T13:57:12;15.23;;;8.50;;
5391;SDS011;2719;53.624;9.786;2024-02-26T13:59:39;16.53;;;8.60;;
5391;SDS011;2719;53.624;9.786;2024-02-26T14:02:07;14.53;;;7.47;;
5391;SDS011;2719;53.624;9.786;2024-02-26T14:04:35;16.20;;;8.03;;
5391;SDS011;2719;53.624;9.786;2024-02-26T14:07:03;15.47;;;7.60;;
5391;SDS011;2719;53.624;9.786;2024-02-26T14:09:30;13.70;;;7.00;;
5391;SDS011;2719;53.624;9.786;2024-02-26T14:11:57;14.70;;;8.40;;
5391;SDS011;2719;53.624;9.786;2024-02-26T14:14:23;13.43;;;8.17;;
5391;SDS011;2719;53.624;9.786;2024-02-26T14:16:50;10.87;;;5.67;;
5391;SDS011;2719;53.624;9.786;2024-02-26T14:19:17;12.60;;;6.90;;
5391;SDS011;2719;53.624;9.786;2024-02-26T14:21:45;12.57;;;6.80;;
5391;SDS011;2719;53.624;9.786;2024-02-26T14:24:12;13.57;;;6.53;;
5391;SDS011;2719;53.624;9.786;2024-02-26T14:26:39;11.40;;;5.53;;
5391;SDS011;2719;53.624;9.786;2024-02-26T14:29:06;12.60;;;6.87;;
5391;SDS011;2719;53.624;9.786;2024-02-26T14:31:33;10.63;;;6.33;;
5391;SDS011;2719;53.624;9.786;2024-02-26T14:34:00;13.00;;;7.13;;
5391;SDS011;2719;53.624;9.786;2024-02-26T14:36:27;13.30;;;6.70;;
5391;SDS011;2719;53.624;9.786;2024-02-26T14:38:55;14.93;;;7.20;;
5391;SDS011;2719;53.624;9.786;2024-02-26T14:41:22;11.90;;;6.70;;
5391;SDS011;2719;53.624;9.786;2024-02-26T14:43:49;15.13;;;8.03;;
5391;SDS011;2719;53.624;9.786;2024-02-26T14:46:15;13.23;;;7.30;;
5391;SDS011;2719;53.624;9.786;2024-02-26T14:48:42;12.10;;;6.43;;
5391;SDS011;2719;53.624;9.786;2024-02-26T14:51:09;11.90;;;7.13;;
5391;SDS011;2719;53.624;9.786;2024-02-26T14:53:35;14.80;;;7.80;;
5391;SDS011;2719;53.624;9.786;2024-02-26T14:56:04;14.13;;;7.40;;
5391;SDS011;2719;53.624;9.786;2024-02-26T14:58:30;11.60;;;7.00;;
5391;SDS011;2719;53.624;9.786;2024-02-26T15:00:57;13.90;;;7.80;;
5391;SDS011;2719;53.624;9.786;2024-02-26T15:03:24;12.80;;;7.67;;
5391;SDS011;2719;53.624;9.786;2024-02-26T15:05:51;14.30;;;8.67;;